OCN34X LGKL-EDDF
Flight info
| Callsign | OCN34X |
|---|---|
| Flight time | 2h 35m |
| Altitude | 36000 |
| Route | ANEPI DCT TRL UN1 ARA DCT VJOSA DCT OVVER DCT PETAK DCT GLOMY DCT ELTIB DCT TUPUS/N0443F380 DCT GORPA DCT SIMBA DCT AKINI T161 DEBHI DEBHI1B |
| Aircraft | A320/M-SDE2E3FGIJ1LORWXYZ/HB1 |
Departure
| Time | 2026-05-04 09:07 |
|---|---|
| Airport | Kalamata Airport (LGKL) |
Arrival
| Time | 2026-05-04 11:42 |
|---|---|
| Airport | Frankfurt Main Airport (EDDF) |
| Time | Latitude | Longitude | Altitude | Speed | Heading |
|---|---|---|---|---|---|
| 2026-05-04 08:31 | 37.05533 | 22.03344 | 35 ft | 0 kts | 121° |
| 2026-05-04 09:02 | 37.05528 | 22.03343 | 33 ft | 1 kts | 172° |
| 2026-05-04 09:02 | 37.05499 | 22.03330 | 35 ft | 8 kts | 217° |
| 2026-05-04 09:03 | 37.05488 | 22.03271 | 35 ft | 6 kts | 281° |
| 2026-05-04 09:03 | 37.05504 | 22.03205 | 35 ft | 11 kts | 286° |
| 2026-05-04 09:03 | 37.05524 | 22.03114 | 35 ft | 11 kts | 285° |
| 2026-05-04 09:03 | 37.05542 | 22.03023 | 34 ft | 11 kts | 277° |
| 2026-05-04 09:04 | 37.05582 | 22.02959 | 34 ft | 10 kts | 335° |
| 2026-05-04 09:04 | 37.05659 | 22.02939 | 33 ft | 12 kts | 352° |
| 2026-05-04 09:04 | 37.05750 | 22.02920 | 33 ft | 14 kts | 343° |
| 2026-05-04 09:04 | 37.05758 | 22.02813 | 30 ft | 12 kts | 267° |
| 2026-05-04 09:05 | 37.05797 | 22.02785 | 30 ft | 5 kts | 341° |
| 2026-05-04 09:05 | 37.05812 | 22.02781 | 30 ft | 0 kts | 349° |
| 2026-05-04 09:05 | 37.05828 | 22.02777 | 30 ft | 12 kts | 349° |
| 2026-05-04 09:06 | 37.06145 | 22.02703 | 31 ft | 83 kts | 349° |
| 2026-05-04 09:07 | 37.14438 | 22.00028 | 3091 ft | 244 kts | 342° |
| 2026-05-04 09:08 | 37.16097 | 21.99441 | 3992 ft | 249 kts | 342° |
| 2026-05-04 09:08 | 37.17783 | 21.98858 | 4931 ft | 253 kts | 343° |
| 2026-05-04 09:08 | 37.19471 | 21.98275 | 5975 ft | 252 kts | 342° |
| 2026-05-04 09:08 | 37.21134 | 21.97566 | 6897 ft | 254 kts | 336° |
| 2026-05-04 09:09 | 37.22760 | 21.96679 | 7803 ft | 256 kts | 335° |
| 2026-05-04 09:09 | 37.23835 | 21.96070 | 8420 ft | 256 kts | 335° |
| 2026-05-04 09:09 | 37.25462 | 21.95136 | 9358 ft | 258 kts | 335° |
| 2026-05-04 09:09 | 37.27099 | 21.94196 | 10248 ft | 260 kts | 335° |
| 2026-05-04 09:10 | 37.28799 | 21.93219 | 10703 ft | 279 kts | 335° |
| 2026-05-04 09:10 | 37.30639 | 21.92164 | 10987 ft | 302 kts | 336° |
| 2026-05-04 09:10 | 37.32586 | 21.91049 | 11588 ft | 311 kts | 336° |
| 2026-05-04 09:10 | 37.34572 | 21.89913 | 12353 ft | 315 kts | 336° |
| 2026-05-04 09:11 | 37.36578 | 21.88766 | 13088 ft | 319 kts | 336° |
| 2026-05-04 09:11 | 37.38609 | 21.87606 | 13885 ft | 322 kts | 336° |
| 2026-05-04 09:11 | 37.40654 | 21.86438 | 14591 ft | 324 kts | 336° |
| 2026-05-04 09:11 | 37.42739 | 21.85247 | 15277 ft | 326 kts | 336° |
| 2026-05-04 09:12 | 37.44783 | 21.84079 | 15944 ft | 328 kts | 336° |
| 2026-05-04 09:12 | 37.46865 | 21.82888 | 16611 ft | 330 kts | 335° |
| 2026-05-04 09:14 | 37.61820 | 21.74302 | 20773 ft | 346 kts | 335° |
| 2026-05-04 09:14 | 37.64017 | 21.73038 | 21282 ft | 348 kts | 335° |
| 2026-05-04 09:14 | 37.66223 | 21.71768 | 21798 ft | 350 kts | 335° |
| 2026-05-04 09:14 | 37.68444 | 21.70488 | 22295 ft | 352 kts | 335° |
| 2026-05-04 09:15 | 37.70681 | 21.69197 | 22781 ft | 354 kts | 335° |
| 2026-05-04 09:15 | 37.72929 | 21.67900 | 23291 ft | 356 kts | 335° |
| 2026-05-04 09:15 | 37.75187 | 21.66594 | 23795 ft | 358 kts | 335° |
| 2026-05-04 09:15 | 37.77459 | 21.65278 | 24204 ft | 360 kts | 335° |
| 2026-05-04 09:17 | 37.95945 | 21.54569 | 27392 ft | 371 kts | 334° |
| 2026-05-04 09:18 | 37.98301 | 21.53200 | 27750 ft | 373 kts | 334° |
| 2026-05-04 09:18 | 38.00665 | 21.51826 | 28135 ft | 375 kts | 334° |
| 2026-05-04 09:18 | 38.03042 | 21.50444 | 28513 ft | 377 kts | 334° |
| 2026-05-04 09:18 | 38.05428 | 21.49055 | 28873 ft | 378 kts | 334° |
| 2026-05-04 09:19 | 38.07823 | 21.47658 | 29235 ft | 380 kts | 334° |
| 2026-05-04 09:19 | 38.10227 | 21.46252 | 29576 ft | 381 kts | 334° |
| 2026-05-04 09:19 | 38.12640 | 21.44840 | 29900 ft | 383 kts | 334° |
| 2026-05-04 09:19 | 38.15066 | 21.43420 | 30239 ft | 384 kts | 334° |
| 2026-05-04 09:20 | 38.17500 | 21.42009 | 30504 ft | 386 kts | 335° |
| 2026-05-04 09:20 | 38.19962 | 21.40628 | 30740 ft | 388 kts | 335° |
| 2026-05-04 09:20 | 38.22442 | 21.39261 | 31011 ft | 389 kts | 335° |
| 2026-05-04 09:20 | 38.24924 | 21.37904 | 31355 ft | 388 kts | 335° |
| 2026-05-04 09:21 | 38.27400 | 21.36548 | 31690 ft | 387 kts | 335° |
| 2026-05-04 09:21 | 38.29873 | 21.35185 | 32009 ft | 387 kts | 335° |
| 2026-05-04 09:21 | 38.32340 | 21.33815 | 32339 ft | 387 kts | 335° |
| 2026-05-04 09:21 | 38.34801 | 21.32444 | 32670 ft | 386 kts | 335° |
| 2026-05-04 09:22 | 38.37265 | 21.31072 | 33006 ft | 386 kts | 335° |
| 2026-05-04 09:22 | 38.39723 | 21.29701 | 33339 ft | 385 kts | 335° |
| 2026-05-04 09:22 | 38.42176 | 21.28332 | 33672 ft | 385 kts | 335° |
| 2026-05-04 09:22 | 38.44626 | 21.26962 | 34006 ft | 384 kts | 335° |
| 2026-05-04 09:23 | 38.47072 | 21.25594 | 34315 ft | 384 kts | 335° |
| 2026-05-04 09:23 | 38.49517 | 21.24227 | 34591 ft | 383 kts | 335° |
| 2026-05-04 09:23 | 38.51959 | 21.22860 | 34865 ft | 384 kts | 335° |
| 2026-05-04 09:23 | 38.54405 | 21.21488 | 35104 ft | 384 kts | 335° |
| 2026-05-04 09:25 | 38.71568 | 21.11855 | 36190 ft | 386 kts | 335° |
| 2026-05-04 09:25 | 38.74026 | 21.10475 | 36191 ft | 386 kts | 335° |
| 2026-05-04 09:26 | 38.78945 | 21.07710 | 36191 ft | 386 kts | 335° |
| 2026-05-04 09:26 | 38.83864 | 21.04928 | 36194 ft | 386 kts | 335° |
| 2026-05-04 09:27 | 38.88775 | 21.02153 | 36191 ft | 386 kts | 335° |
| 2026-05-04 09:27 | 38.93650 | 20.99386 | 36187 ft | 385 kts | 335° |
| 2026-05-04 09:28 | 38.98558 | 20.96596 | 36196 ft | 385 kts | 335° |
| 2026-05-04 09:28 | 39.03463 | 20.93810 | 36189 ft | 385 kts | 335° |
| 2026-05-04 09:29 | 39.08364 | 20.91022 | 36182 ft | 385 kts | 335° |
| 2026-05-04 09:29 | 39.13265 | 20.88222 | 36179 ft | 385 kts | 335° |
| 2026-05-04 09:30 | 39.18168 | 20.85428 | 36169 ft | 385 kts | 335° |
| 2026-05-04 09:30 | 39.23066 | 20.82634 | 36181 ft | 385 kts | 335° |
| 2026-05-04 09:31 | 39.27964 | 20.79826 | 36143 ft | 385 kts | 335° |
| 2026-05-04 09:31 | 39.32860 | 20.77020 | 36149 ft | 385 kts | 335° |
| 2026-05-04 09:32 | 39.37759 | 20.74207 | 36154 ft | 385 kts | 335° |
| 2026-05-04 09:34 | 39.57364 | 20.62904 | 36164 ft | 386 kts | 335° |
| 2026-05-04 09:34 | 39.62268 | 20.60059 | 36145 ft | 386 kts | 335° |
| 2026-05-04 09:35 | 39.67175 | 20.57209 | 36146 ft | 386 kts | 335° |
| 2026-05-04 09:35 | 39.72083 | 20.54366 | 36152 ft | 386 kts | 335° |
| 2026-05-04 09:37 | 39.91725 | 20.42915 | 36129 ft | 387 kts | 335° |
| 2026-05-04 09:38 | 39.96633 | 20.40040 | 36141 ft | 387 kts | 335° |
| 2026-05-04 09:38 | 40.01510 | 20.37047 | 36142 ft | 387 kts | 333° |
| 2026-05-04 09:39 | 40.06292 | 20.33798 | 36135 ft | 387 kts | 332° |
| 2026-05-04 09:39 | 40.11052 | 20.30511 | 36136 ft | 387 kts | 332° |
| 2026-05-04 09:40 | 40.15836 | 20.27257 | 36137 ft | 388 kts | 332° |
| 2026-05-04 09:40 | 40.20636 | 20.24033 | 36145 ft | 388 kts | 333° |
| 2026-05-04 09:42 | 40.39839 | 20.11052 | 36122 ft | 388 kts | 332° |
| 2026-05-04 09:43 | 40.44636 | 20.07781 | 36136 ft | 389 kts | 333° |
| 2026-05-04 09:43 | 40.49439 | 20.04514 | 36141 ft | 389 kts | 333° |
| 2026-05-04 09:44 | 40.54243 | 20.01242 | 36143 ft | 389 kts | 333° |
| 2026-05-04 09:46 | 40.74206 | 19.90135 | 36155 ft | 390 kts | 336° |
| 2026-05-04 09:46 | 40.79195 | 19.87325 | 36155 ft | 390 kts | 336° |
| 2026-05-04 09:47 | 40.84186 | 19.84528 | 36152 ft | 390 kts | 336° |
| 2026-05-04 09:49 | 41.04172 | 19.73273 | 36149 ft | 391 kts | 336° |
| 2026-05-04 09:51 | 41.20836 | 19.63857 | 36163 ft | 391 kts | 336° |
| 2026-05-04 09:51 | 41.25835 | 19.61026 | 36165 ft | 391 kts | 336° |
| 2026-05-04 09:52 | 41.30833 | 19.58186 | 36165 ft | 391 kts | 336° |
| 2026-05-04 09:52 | 41.35830 | 19.55338 | 36168 ft | 391 kts | 336° |
| 2026-05-04 09:53 | 41.40828 | 19.52477 | 36163 ft | 391 kts | 336° |
| 2026-05-04 09:53 | 41.45828 | 19.49611 | 36166 ft | 391 kts | 336° |
| 2026-05-04 09:54 | 41.50833 | 19.46745 | 36167 ft | 391 kts | 336° |
| 2026-05-04 09:54 | 41.55842 | 19.43882 | 36152 ft | 392 kts | 336° |
| 2026-05-04 09:55 | 41.60856 | 19.41005 | 36157 ft | 392 kts | 336° |
| 2026-05-04 09:55 | 41.65874 | 19.38110 | 36157 ft | 393 kts | 336° |
| 2026-05-04 09:56 | 41.70895 | 19.35212 | 36158 ft | 393 kts | 336° |
| 2026-05-04 09:56 | 41.75921 | 19.32308 | 36159 ft | 393 kts | 336° |
| 2026-05-04 09:57 | 41.80635 | 19.28614 | 36157 ft | 394 kts | 327° |
| 2026-05-04 09:57 | 41.85195 | 19.24525 | 36157 ft | 395 kts | 327° |
| 2026-05-04 09:58 | 41.89769 | 19.20427 | 36158 ft | 395 kts | 327° |
| 2026-05-04 09:58 | 41.94311 | 19.16353 | 36161 ft | 395 kts | 327° |
| 2026-05-04 10:00 | 42.12646 | 18.99825 | 36158 ft | 397 kts | 327° |
| 2026-05-04 10:04 | 42.44721 | 18.70599 | 36169 ft | 399 kts | 326° |
| 2026-05-04 10:04 | 42.49323 | 18.66399 | 36178 ft | 399 kts | 326° |
| 2026-05-04 10:05 | 42.53913 | 18.62187 | 36171 ft | 399 kts | 326° |
| 2026-05-04 10:05 | 42.58504 | 18.57952 | 36164 ft | 399 kts | 326° |
| 2026-05-04 10:06 | 42.63101 | 18.53713 | 36174 ft | 400 kts | 326° |
| 2026-05-04 10:06 | 42.67704 | 18.49470 | 36172 ft | 400 kts | 326° |
| 2026-05-04 10:08 | 42.83801 | 18.34542 | 36158 ft | 401 kts | 326° |
| 2026-05-04 10:08 | 42.88411 | 18.30251 | 36157 ft | 401 kts | 326° |
| 2026-05-04 10:09 | 42.93016 | 18.25944 | 36157 ft | 401 kts | 326° |
| 2026-05-04 10:09 | 42.97625 | 18.21637 | 36157 ft | 401 kts | 326° |
| 2026-05-04 10:10 | 43.02236 | 18.17321 | 36153 ft | 402 kts | 326° |
| 2026-05-04 10:10 | 43.06847 | 18.12987 | 36154 ft | 402 kts | 326° |
| 2026-05-04 10:11 | 43.11456 | 18.08647 | 36150 ft | 402 kts | 326° |
| 2026-05-04 10:11 | 43.16069 | 18.04301 | 36150 ft | 402 kts | 326° |
| 2026-05-04 10:12 | 43.20686 | 17.99954 | 36148 ft | 403 kts | 326° |
| 2026-05-04 10:12 | 43.25306 | 17.95596 | 36151 ft | 403 kts | 326° |
| 2026-05-04 10:13 | 43.29928 | 17.91217 | 36147 ft | 404 kts | 325° |
| 2026-05-04 10:13 | 43.34543 | 17.86822 | 36151 ft | 404 kts | 325° |
| 2026-05-04 10:14 | 43.39160 | 17.82427 | 36147 ft | 404 kts | 325° |
| 2026-05-04 10:16 | 43.57597 | 17.64735 | 36136 ft | 404 kts | 323° |
| 2026-05-04 10:16 | 43.61975 | 17.59870 | 36139 ft | 404 kts | 320° |
| 2026-05-04 10:17 | 43.66280 | 17.54867 | 36139 ft | 405 kts | 320° |
| 2026-05-04 10:19 | 43.83743 | 17.35086 | 36128 ft | 406 kts | 321° |
| 2026-05-04 10:19 | 43.88105 | 17.30126 | 36138 ft | 406 kts | 321° |
| 2026-05-04 10:20 | 43.92471 | 17.25148 | 36136 ft | 406 kts | 321° |
| 2026-05-04 10:20 | 43.96837 | 17.20156 | 36119 ft | 407 kts | 320° |
| 2026-05-04 10:21 | 44.01181 | 17.15197 | 36118 ft | 407 kts | 320° |
| 2026-05-04 10:21 | 44.05560 | 17.10206 | 36125 ft | 407 kts | 320° |
| 2026-05-04 10:22 | 44.12130 | 17.02703 | 36131 ft | 408 kts | 320° |
| 2026-05-04 10:23 | 44.16533 | 16.97628 | 36131 ft | 408 kts | 320° |
| 2026-05-04 10:25 | 44.34153 | 16.77624 | 36132 ft | 409 kts | 324° |
| 2026-05-04 10:25 | 44.38841 | 16.73087 | 36121 ft | 410 kts | 325° |
| 2026-05-04 10:26 | 44.43552 | 16.68541 | 36327 ft | 413 kts | 324° |
| 2026-05-04 10:26 | 44.45902 | 16.66223 | 36585 ft | 413 kts | 323° |
| 2026-05-04 10:26 | 44.48237 | 16.63894 | 36839 ft | 412 kts | 323° |
| 2026-05-04 10:26 | 44.50568 | 16.61551 | 37089 ft | 412 kts | 323° |
| 2026-05-04 10:27 | 44.52895 | 16.59205 | 37331 ft | 412 kts | 323° |
| 2026-05-04 10:27 | 44.55221 | 16.56863 | 37572 ft | 412 kts | 323° |
| 2026-05-04 10:27 | 44.57550 | 16.54526 | 37813 ft | 411 kts | 324° |
| 2026-05-04 10:27 | 44.59881 | 16.52193 | 38022 ft | 412 kts | 324° |
| 2026-05-04 10:28 | 44.62212 | 16.49859 | 38126 ft | 412 kts | 324° |
| 2026-05-04 10:28 | 44.66878 | 16.45180 | 38117 ft | 412 kts | 323° |
| 2026-05-04 10:29 | 44.71541 | 16.40486 | 38119 ft | 412 kts | 323° |
| 2026-05-04 10:29 | 44.76203 | 16.35775 | 38119 ft | 413 kts | 323° |
| 2026-05-04 10:30 | 44.80872 | 16.31058 | 38122 ft | 413 kts | 323° |
| 2026-05-04 10:30 | 44.85544 | 16.26337 | 38113 ft | 413 kts | 323° |
| 2026-05-04 10:31 | 44.90211 | 16.21598 | 38112 ft | 413 kts | 323° |
| 2026-05-04 10:32 | 45.05756 | 16.05729 | 38102 ft | 414 kts | 323° |
| 2026-05-04 10:33 | 45.10429 | 16.00943 | 38101 ft | 415 kts | 323° |
| 2026-05-04 10:33 | 45.15104 | 15.96145 | 38099 ft | 415 kts | 323° |
| 2026-05-04 10:34 | 45.19777 | 15.91335 | 38095 ft | 415 kts | 323° |
| 2026-05-04 10:34 | 45.24476 | 15.86553 | 38096 ft | 416 kts | 324° |
| 2026-05-04 10:35 | 45.29281 | 15.81961 | 38100 ft | 417 kts | 325° |
| 2026-05-04 10:35 | 45.34103 | 15.77393 | 38099 ft | 417 kts | 325° |
| 2026-05-04 10:36 | 45.38908 | 15.72773 | 38099 ft | 417 kts | 324° |
| 2026-05-04 10:36 | 45.43703 | 15.68118 | 38097 ft | 417 kts | 324° |
| 2026-05-04 10:37 | 45.48501 | 15.63456 | 38095 ft | 417 kts | 324° |
| 2026-05-04 10:37 | 45.53300 | 15.58792 | 38100 ft | 418 kts | 324° |
| 2026-05-04 10:39 | 45.70104 | 15.42389 | 38094 ft | 418 kts | 324° |
| 2026-05-04 10:40 | 45.74902 | 15.37677 | 38100 ft | 418 kts | 324° |
| 2026-05-04 10:40 | 45.79721 | 15.33000 | 38101 ft | 419 kts | 326° |
| 2026-05-04 10:41 | 45.84658 | 15.28560 | 38101 ft | 419 kts | 327° |
| 2026-05-04 10:41 | 45.89629 | 15.24179 | 38101 ft | 419 kts | 327° |
| 2026-05-04 10:42 | 45.94576 | 15.19737 | 38099 ft | 419 kts | 326° |
| 2026-05-04 10:42 | 45.99501 | 15.15251 | 38082 ft | 420 kts | 326° |
| 2026-05-04 10:43 | 46.04443 | 15.10738 | 38075 ft | 421 kts | 326° |
| 2026-05-04 10:45 | 46.24310 | 14.92565 | 38087 ft | 423 kts | 326° |
| 2026-05-04 10:45 | 46.29247 | 14.88017 | 38094 ft | 423 kts | 325° |
| 2026-05-04 10:46 | 46.34216 | 14.83434 | 38085 ft | 423 kts | 325° |
| 2026-05-04 10:46 | 46.39183 | 14.78858 | 38093 ft | 423 kts | 325° |
| 2026-05-04 10:47 | 46.44145 | 14.74278 | 38095 ft | 422 kts | 325° |
| 2026-05-04 10:47 | 46.49103 | 14.69679 | 38073 ft | 423 kts | 325° |
| 2026-05-04 10:49 | 46.68991 | 14.51110 | 38072 ft | 427 kts | 325° |
| 2026-05-04 10:50 | 46.73984 | 14.46424 | 38072 ft | 427 kts | 325° |
| 2026-05-04 10:52 | 46.93995 | 14.27552 | 38072 ft | 429 kts | 324° |
| 2026-05-04 10:52 | 46.99012 | 14.22802 | 38071 ft | 429 kts | 324° |
| 2026-05-04 10:54 | 47.19025 | 14.03697 | 38070 ft | 430 kts | 324° |
| 2026-05-04 10:56 | 47.39098 | 13.84386 | 38047 ft | 431 kts | 324° |
| 2026-05-04 10:57 | 47.44107 | 13.79521 | 38033 ft | 431 kts | 324° |
| 2026-05-04 10:57 | 47.49120 | 13.74639 | 38022 ft | 432 kts | 324° |
| 2026-05-04 10:58 | 47.54143 | 13.69759 | 38028 ft | 432 kts | 324° |
| 2026-05-04 10:58 | 47.59167 | 13.64864 | 38022 ft | 432 kts | 324° |
| 2026-05-04 10:59 | 47.64192 | 13.59957 | 38027 ft | 432 kts | 324° |
| 2026-05-04 10:59 | 47.69207 | 13.55039 | 38027 ft | 432 kts | 324° |
| 2026-05-04 11:00 | 47.74220 | 13.50104 | 38019 ft | 433 kts | 324° |
| 2026-05-04 11:02 | 47.94281 | 13.30278 | 38028 ft | 433 kts | 323° |
| 2026-05-04 11:05 | 48.30049 | 12.89666 | 38015 ft | 430 kts | 309° |
| 2026-05-04 11:06 | 48.34018 | 12.82948 | 38004 ft | 430 kts | 309° |
| 2026-05-04 11:06 | 48.37989 | 12.76188 | 38011 ft | 431 kts | 308° |
| 2026-05-04 11:10 | 48.65648 | 12.28633 | 38023 ft | 431 kts | 308° |
| 2026-05-04 11:12 | 48.76082 | 12.02194 | 38009 ft | 419 kts | 277° |
| 2026-05-04 11:12 | 48.76552 | 11.97833 | 38009 ft | 419 kts | 277° |
| 2026-05-04 11:12 | 48.77501 | 11.89106 | 38011 ft | 420 kts | 277° |
| 2026-05-04 11:13 | 48.78436 | 11.80427 | 38030 ft | 420 kts | 277° |
| 2026-05-04 11:13 | 48.79372 | 11.71625 | 38033 ft | 420 kts | 276° |
| 2026-05-04 11:14 | 48.80281 | 11.62892 | 38035 ft | 419 kts | 276° |
| 2026-05-04 11:16 | 48.83922 | 11.28012 | 36102 ft | 421 kts | 282° |
| 2026-05-04 11:16 | 48.84905 | 11.23813 | 35845 ft | 424 kts | 292° |
| 2026-05-04 11:16 | 48.86402 | 11.19930 | 35597 ft | 429 kts | 303° |
| 2026-05-04 11:17 | 48.88377 | 11.16505 | 35347 ft | 435 kts | 313° |
| 2026-05-04 11:17 | 48.90619 | 11.13408 | 35094 ft | 436 kts | 313° |
| 2026-05-04 11:19 | 49.06285 | 10.91432 | 33032 ft | 441 kts | 313° |
| 2026-05-04 11:19 | 49.07784 | 10.89317 | 32251 ft | 447 kts | 313° |
| 2026-05-04 11:19 | 49.10844 | 10.84997 | 31300 ft | 444 kts | 313° |
| 2026-05-04 11:19 | 49.13101 | 10.81810 | 30688 ft | 441 kts | 313° |
| 2026-05-04 11:20 | 49.15339 | 10.78642 | 30040 ft | 438 kts | 313° |
| 2026-05-04 11:20 | 49.16815 | 10.76552 | 29579 ft | 436 kts | 313° |
| 2026-05-04 11:20 | 49.19025 | 10.73421 | 28967 ft | 431 kts | 313° |
| 2026-05-04 11:20 | 49.21185 | 10.70288 | 28352 ft | 426 kts | 312° |
| 2026-05-04 11:22 | 49.35134 | 10.48074 | 24316 ft | 401 kts | 310° |
| 2026-05-04 11:22 | 49.36896 | 10.44807 | 23781 ft | 393 kts | 302° |
| 2026-05-04 11:23 | 49.38449 | 10.41403 | 23373 ft | 387 kts | 302° |
| 2026-05-04 11:23 | 49.39989 | 10.38034 | 22967 ft | 384 kts | 302° |
| 2026-05-04 11:24 | 49.49075 | 10.18097 | 20679 ft | 375 kts | 301° |
| 2026-05-04 11:25 | 49.50560 | 10.14816 | 20293 ft | 373 kts | 301° |
| 2026-05-04 11:25 | 49.52039 | 10.11543 | 19922 ft | 372 kts | 301° |
| 2026-05-04 11:25 | 49.53512 | 10.08284 | 19491 ft | 369 kts | 301° |
| 2026-05-04 11:26 | 49.56411 | 10.01852 | 18598 ft | 363 kts | 301° |
| 2026-05-04 11:27 | 49.66257 | 9.79904 | 15348 ft | 349 kts | 302° |
| 2026-05-04 11:28 | 49.67634 | 9.76829 | 14898 ft | 347 kts | 302° |
| 2026-05-04 11:28 | 49.68997 | 9.73775 | 14480 ft | 345 kts | 302° |
| 2026-05-04 11:28 | 49.70353 | 9.70727 | 14058 ft | 343 kts | 302° |
| 2026-05-04 11:28 | 49.71696 | 9.67699 | 13635 ft | 341 kts | 302° |
| 2026-05-04 11:29 | 49.73015 | 9.64725 | 13490 ft | 330 kts | 302° |
| 2026-05-04 11:29 | 49.74291 | 9.61851 | 13353 ft | 319 kts | 302° |
| 2026-05-04 11:29 | 49.75529 | 9.59063 | 13219 ft | 310 kts | 302° |
| 2026-05-04 11:29 | 49.76731 | 9.56355 | 12801 ft | 302 kts | 302° |
| 2026-05-04 11:31 | 49.84819 | 9.38004 | 9882 ft | 288 kts | 301° |
| 2026-05-04 11:33 | 49.92395 | 9.20898 | 7307 ft | 276 kts | 314° |
| 2026-05-04 11:33 | 49.93746 | 9.18917 | 7182 ft | 265 kts | 314° |
| 2026-05-04 11:33 | 49.95062 | 9.16989 | 7069 ft | 256 kts | 314° |
| 2026-05-04 11:34 | 49.96348 | 9.15107 | 7004 ft | 253 kts | 314° |
| 2026-05-04 11:34 | 49.97631 | 9.13228 | 7012 ft | 253 kts | 314° |
| 2026-05-04 11:34 | 49.98903 | 9.11369 | 6682 ft | 248 kts | 314° |
| 2026-05-04 11:34 | 50.00142 | 9.09575 | 6358 ft | 240 kts | 314° |
| 2026-05-04 11:35 | 50.01350 | 9.07833 | 5900 ft | 235 kts | 314° |
| 2026-05-04 11:35 | 50.02545 | 9.06110 | 5386 ft | 233 kts | 314° |
| 2026-05-04 11:35 | 50.03726 | 9.04404 | 4877 ft | 231 kts | 314° |
| 2026-05-04 11:35 | 50.04897 | 9.02710 | 4347 ft | 229 kts | 314° |
| 2026-05-04 11:36 | 50.06066 | 9.01006 | 4039 ft | 229 kts | 314° |
| 2026-05-04 11:36 | 50.07219 | 8.99313 | 4003 ft | 224 kts | 314° |
| 2026-05-04 11:36 | 50.08325 | 8.97698 | 4001 ft | 214 kts | 314° |
| 2026-05-04 11:36 | 50.09406 | 8.96130 | 4008 ft | 212 kts | 314° |
| 2026-05-04 11:37 | 50.10319 | 8.94373 | 4020 ft | 207 kts | 294° |
| 2026-05-04 11:37 | 50.10822 | 8.92333 | 4003 ft | 196 kts | 285° |
| 2026-05-04 11:37 | 50.11152 | 8.90373 | 4034 ft | 178 kts | 273° |
| 2026-05-04 11:37 | 50.11057 | 8.88513 | 4015 ft | 171 kts | 252° |
| 2026-05-04 11:38 | 50.10663 | 8.86805 | 3984 ft | 170 kts | 249° |
| 2026-05-04 11:38 | 50.10257 | 8.85077 | 3833 ft | 170 kts | 249° |
| 2026-05-04 11:38 | 50.09852 | 8.83355 | 3629 ft | 169 kts | 248° |
| 2026-05-04 11:38 | 50.09445 | 8.81631 | 3424 ft | 171 kts | 249° |
| 2026-05-04 11:39 | 50.09034 | 8.79885 | 3203 ft | 172 kts | 249° |
| 2026-05-04 11:39 | 50.08621 | 8.78138 | 2969 ft | 170 kts | 248° |
| 2026-05-04 11:40 | 50.06704 | 8.67493 | 1573 ft | 170 kts | 254° |
| 2026-05-04 11:41 | 50.06334 | 8.65802 | 1358 ft | 159 kts | 246° |
| 2026-05-04 11:41 | 50.05879 | 8.64279 | 1146 ft | 153 kts | 243° |
| 2026-05-04 11:41 | 50.05464 | 8.62756 | 996 ft | 153 kts | 250° |
| 2026-05-04 11:41 | 50.05123 | 8.61200 | 818 ft | 150 kts | 251° |
| 2026-05-04 11:42 | 50.04750 | 8.59698 | 577 ft | 148 kts | 249° |
| 2026-05-04 11:42 | 50.04393 | 8.58210 | 378 ft | 142 kts | 250° |
| 2026-05-04 11:42 | 50.04095 | 8.56934 | 364 ft | 104 kts | 249° |
| 2026-05-04 11:42 | 50.03903 | 8.56143 | 357 ft | 48 kts | 249° |
| 2026-05-04 11:43 | 50.03885 | 8.55827 | 353 ft | 27 kts | 281° |
| 2026-05-04 11:43 | 50.03921 | 8.55629 | 355 ft | 11 kts | 319° |
| 2026-05-04 11:43 | 50.03979 | 8.55669 | 351 ft | 9 kts | 54° |
| 2026-05-04 11:43 | 50.04008 | 8.55781 | 351 ft | 14 kts | 69° |
| 2026-05-04 11:44 | 50.04043 | 8.55925 | 353 ft | 14 kts | 70° |
| 2026-05-04 11:44 | 50.04077 | 8.56070 | 354 ft | 14 kts | 70° |
| 2026-05-04 11:44 | 50.04112 | 8.56217 | 358 ft | 15 kts | 69° |
| 2026-05-04 11:44 | 50.04148 | 8.56368 | 357 ft | 15 kts | 69° |
| 2026-05-04 11:45 | 50.04185 | 8.56520 | 361 ft | 15 kts | 69° |
| 2026-05-04 11:45 | 50.04221 | 8.56673 | 363 ft | 15 kts | 70° |
| 2026-05-04 11:45 | 50.04271 | 8.56798 | 361 ft | 13 kts | 31° |
| 2026-05-04 11:45 | 50.04363 | 8.56834 | 360 ft | 15 kts | 10° |
| 2026-05-04 11:46 | 50.04475 | 8.56861 | 359 ft | 18 kts | 11° |
| 2026-05-04 11:46 | 50.04606 | 8.56910 | 359 ft | 22 kts | 13° |
| 2026-05-04 11:46 | 50.04741 | 8.56996 | 364 ft | 18 kts | 24° |
| 2026-05-04 11:46 | 50.04842 | 8.57068 | 359 ft | 14 kts | 24° |
| 2026-05-04 11:47 | 50.04893 | 8.57110 | 361 ft | 6 kts | 45° |
| 2026-05-04 11:47 | 50.04896 | 8.57155 | 361 ft | 3 kts | 123° |
| 2026-05-04 11:47 | 50.04879 | 8.57165 | 358 ft | 2 kts | 174° |
| 2026-05-04 11:47 | 50.04875 | 8.57164 | 357 ft | 0 kts | 182° |